sensor_id;sensor_type;location;lat;lon;timestamp;P1;durP1;ratioP1;P2;durP2;ratioP2
809;SDS011;387;48.772;9.186;2023-10-09T00:01:39;22.67;;;6.73;;
809;SDS011;387;48.772;9.186;2023-10-09T00:04:09;19.70;;;6.53;;
809;SDS011;387;48.772;9.186;2023-10-09T00:06:39;18.60;;;5.90;;
809;SDS011;387;48.772;9.186;2023-10-09T00:09:08;21.37;;;6.90;;
809;SDS011;387;48.772;9.186;2023-10-09T00:11:49;15.47;;;5.07;;
809;SDS011;387;48.772;9.186;2023-10-09T00:14:22;19.90;;;5.83;;
809;SDS011;387;48.772;9.186;2023-10-09T00:17:13;21.60;;;5.50;;
809;SDS011;387;48.772;9.186;2023-10-09T00:19:40;18.30;;;5.43;;
809;SDS011;387;48.772;9.186;2023-10-09T00:22:08;25.23;;;6.73;;
809;SDS011;387;48.772;9.186;2023-10-09T00:24:45;26.30;;;6.13;;
809;SDS011;387;48.772;9.186;2023-10-09T00:27:14;28.23;;;7.47;;
809;SDS011;387;48.772;9.186;2023-10-09T00:29:44;25.90;;;5.80;;
809;SDS011;387;48.772;9.186;2023-10-09T00:32:10;22.10;;;5.60;;
809;SDS011;387;48.772;9.186;2023-10-09T00:34:52;19.43;;;6.33;;
809;SDS011;387;48.772;9.186;2023-10-09T00:37:23;18.47;;;6.20;;
809;SDS011;387;48.772;9.186;2023-10-09T00:39:50;24.97;;;6.60;;
809;SDS011;387;48.772;9.186;2023-10-09T00:42:25;22.83;;;5.87;;
809;SDS011;387;48.772;9.186;2023-10-09T00:45:00;17.60;;;5.60;;
809;SDS011;387;48.772;9.186;2023-10-09T00:47:33;22.83;;;5.47;;
809;SDS011;387;48.772;9.186;2023-10-09T00:50:00;20.53;;;6.10;;
809;SDS011;387;48.772;9.186;2023-10-09T00:52:57;17.50;;;5.83;;
809;SDS011;387;48.772;9.186;2023-10-09T00:55:27;19.23;;;6.30;;
809;SDS011;387;48.772;9.186;2023-10-09T00:58:13;18.20;;;5.87;;
809;SDS011;387;48.772;9.186;2023-10-09T01:00:42;22.87;;;5.73;;
809;SDS011;387;48.772;9.186;2023-10-09T01:03:08;16.57;;;5.30;;
809;SDS011;387;48.772;9.186;2023-10-09T01:08:26;22.90;;;6.20;;
809;SDS011;387;48.772;9.186;2023-10-09T01:10:57;19.40;;;6.43;;
809;SDS011;387;48.772;9.186;2023-10-09T01:13:34;18.00;;;5.90;;
809;SDS011;387;48.772;9.186;2023-10-09T01:16:22;22.27;;;5.60;;
809;SDS011;387;48.772;9.186;2023-10-09T01:18:49;20.00;;;6.20;;
809;SDS011;387;48.772;9.186;2023-10-09T01:21:16;19.90;;;6.73;;
809;SDS011;387;48.772;9.186;2023-10-09T01:23:49;23.40;;;5.37;;
809;SDS011;387;48.772;9.186;2023-10-09T01:26:33;23.00;;;5.60;;
809;SDS011;387;48.772;9.186;2023-10-09T01:29:09;23.17;;;6.50;;
809;SDS011;387;48.772;9.186;2023-10-09T01:31:39;10.57;;;5.10;;
809;SDS011;387;48.772;9.186;2023-10-09T01:34:11;17.10;;;5.50;;
809;SDS011;387;48.772;9.186;2023-10-09T01:36:38;24.13;;;6.10;;
809;SDS011;387;48.772;9.186;2023-10-09T01:39:04;19.73;;;5.83;;
809;SDS011;387;48.772;9.186;2023-10-09T01:41:49;21.80;;;6.20;;
809;SDS011;387;48.772;9.186;2023-10-09T01:44:17;20.87;;;6.73;;
809;SDS011;387;48.772;9.186;2023-10-09T01:46:44;23.10;;;6.50;;
809;SDS011;387;48.772;9.186;2023-10-09T01:49:11;18.83;;;6.20;;
809;SDS011;387;48.772;9.186;2023-10-09T01:51:46;19.50;;;5.47;;
809;SDS011;387;48.772;9.186;2023-10-09T01:54:15;25.03;;;6.70;;
809;SDS011;387;48.772;9.186;2023-10-09T01:56:58;28.90;;;7.10;;
809;SDS011;387;48.772;9.186;2023-10-09T01:59:30;21.60;;;5.43;;
809;SDS011;387;48.772;9.186;2023-10-09T02:02:03;17.73;;;6.60;;
809;SDS011;387;48.772;9.186;2023-10-09T02:04:41;21.40;;;6.30;;
809;SDS011;387;48.772;9.186;2023-10-09T02:07:06;22.53;;;6.30;;
809;SDS011;387;48.772;9.186;2023-10-09T02:09:35;17.50;;;5.50;;
809;SDS011;387;48.772;9.186;2023-10-09T02:12:09;15.00;;;4.90;;
809;SDS011;387;48.772;9.186;2023-10-09T02:14:35;19.30;;;5.70;;
809;SDS011;387;48.772;9.186;2023-10-09T02:17:06;15.30;;;5.30;;
809;SDS011;387;48.772;9.186;2023-10-09T02:19:43;19.97;;;6.00;;
809;SDS011;387;48.772;9.186;2023-10-09T02:22:13;19.00;;;5.80;;
809;SDS011;387;48.772;9.186;2023-10-09T02:24:43;19.93;;;5.80;;
809;SDS011;387;48.772;9.186;2023-10-09T02:27:22;23.53;;;6.53;;
809;SDS011;387;48.772;9.186;2023-10-09T02:30:07;20.37;;;5.70;;
809;SDS011;387;48.772;9.186;2023-10-09T02:32:45;19.20;;;5.47;;
809;SDS011;387;48.772;9.186;2023-10-09T02:35:17;15.43;;;6.07;;
809;SDS011;387;48.772;9.186;2023-10-09T02:38:15;29.10;;;5.67;;
809;SDS011;387;48.772;9.186;2023-10-09T02:40:42;21.20;;;5.73;;
809;SDS011;387;48.772;9.186;2023-10-09T02:43:33;21.40;;;6.50;;
809;SDS011;387;48.772;9.186;2023-10-09T02:46:12;15.37;;;5.90;;
809;SDS011;387;48.772;9.186;2023-10-09T02:48:48;15.57;;;5.43;;
809;SDS011;387;48.772;9.186;2023-10-09T02:51:20;24.87;;;5.77;;
809;SDS011;387;48.772;9.186;2023-10-09T02:53:56;21.73;;;5.07;;
809;SDS011;387;48.772;9.186;2023-10-09T02:56:23;18.63;;;6.30;;
809;SDS011;387;48.772;9.186;2023-10-09T02:58:52;24.33;;;6.00;;
809;SDS011;387;48.772;9.186;2023-10-09T03:01:18;21.53;;;5.63;;
809;SDS011;387;48.772;9.186;2023-10-09T03:03:44;19.03;;;5.90;;
809;SDS011;387;48.772;9.186;2023-10-09T03:06:11;33.07;;;6.23;;
809;SDS011;387;48.772;9.186;2023-10-09T03:08:38;23.47;;;6.10;;
809;SDS011;387;48.772;9.186;2023-10-09T03:11:07;18.30;;;4.93;;
809;SDS011;387;48.772;9.186;2023-10-09T03:13:40;27.53;;;6.90;;
809;SDS011;387;48.772;9.186;2023-10-09T03:16:08;16.20;;;5.17;;
809;SDS011;387;48.772;9.186;2023-10-09T03:18:39;19.67;;;5.77;;
809;SDS011;387;48.772;9.186;2023-10-09T03:21:05;27.37;;;5.60;;
809;SDS011;387;48.772;9.186;2023-10-09T03:23:31;18.13;;;5.60;;
809;SDS011;387;48.772;9.186;2023-10-09T03:25:57;18.03;;;5.43;;
809;SDS011;387;48.772;9.186;2023-10-09T03:28:23;20.73;;;6.30;;
809;SDS011;387;48.772;9.186;2023-10-09T03:30:49;19.50;;;5.67;;
809;SDS011;387;48.772;9.186;2023-10-09T03:33:15;21.67;;;4.70;;
809;SDS011;387;48.772;9.186;2023-10-09T03:35:42;16.97;;;5.10;;
809;SDS011;387;48.772;9.186;2023-10-09T03:38:08;26.43;;;6.13;;
809;SDS011;387;48.772;9.186;2023-10-09T03:40:44;16.97;;;4.80;;
809;SDS011;387;48.772;9.186;2023-10-09T03:43:13;15.63;;;5.93;;
809;SDS011;387;48.772;9.186;2023-10-09T03:45:39;15.60;;;4.77;;
809;SDS011;387;48.772;9.186;2023-10-09T03:48:17;17.63;;;5.80;;
809;SDS011;387;48.772;9.186;2023-10-09T03:50:47;21.70;;;5.70;;
809;SDS011;387;48.772;9.186;2023-10-09T03:53:13;19.43;;;5.87;;
809;SDS011;387;48.772;9.186;2023-10-09T03:55:39;20.53;;;5.37;;
809;SDS011;387;48.772;9.186;2023-10-09T03:58:06;24.03;;;5.87;;
809;SDS011;387;48.772;9.186;2023-10-09T04:00:32;12.63;;;5.20;;
809;SDS011;387;48.772;9.186;2023-10-09T04:03:09;23.03;;;6.00;;
809;SDS011;387;48.772;9.186;2023-10-09T04:05:36;15.47;;;4.70;;
809;SDS011;387;48.772;9.186;2023-10-09T04:08:02;21.20;;;5.40;;
809;SDS011;387;48.772;9.186;2023-10-09T04:10:37;17.47;;;5.37;;
809;SDS011;387;48.772;9.186;2023-10-09T04:13:22;23.53;;;6.60;;
809;SDS011;387;48.772;9.186;2023-10-09T04:15:51;17.13;;;5.33;;
809;SDS011;387;48.772;9.186;2023-10-09T04:18:19;24.43;;;6.30;;
809;SDS011;387;48.772;9.186;2023-10-09T04:20:45;22.20;;;5.77;;
809;SDS011;387;48.772;9.186;2023-10-09T04:23:30;19.43;;;5.30;;
809;SDS011;387;48.772;9.186;2023-10-09T04:26:21;25.97;;;5.97;;
809;SDS011;387;48.772;9.186;2023-10-09T04:28:50;14.50;;;5.07;;
809;SDS011;387;48.772;9.186;2023-10-09T04:31:18;19.70;;;5.10;;
809;SDS011;387;48.772;9.186;2023-10-09T04:33:45;17.17;;;6.13;;
809;SDS011;387;48.772;9.186;2023-10-09T04:36:31;14.50;;;5.30;;
809;SDS011;387;48.772;9.186;2023-10-09T04:39:11;23.20;;;5.43;;
809;SDS011;387;48.772;9.186;2023-10-09T04:41:37;17.50;;;5.37;;
809;SDS011;387;48.772;9.186;2023-10-09T04:44:09;14.80;;;5.23;;
809;SDS011;387;48.772;9.186;2023-10-09T04:46:47;17.13;;;5.20;;
809;SDS011;387;48.772;9.186;2023-10-09T04:49:32;15.73;;;4.90;;
809;SDS011;387;48.772;9.186;2023-10-09T04:52:17;23.03;;;5.17;;
809;SDS011;387;48.772;9.186;2023-10-09T04:55:03;17.10;;;5.30;;
809;SDS011;387;48.772;9.186;2023-10-09T04:57:35;13.87;;;4.77;;
809;SDS011;387;48.772;9.186;2023-10-09T05:00:11;18.70;;;5.50;;
809;SDS011;387;48.772;9.186;2023-10-09T05:02:53;20.47;;;5.10;;
809;SDS011;387;48.772;9.186;2023-10-09T05:05:21;22.07;;;6.00;;
809;SDS011;387;48.772;9.186;2023-10-09T05:08:06;15.47;;;5.77;;
809;SDS011;387;48.772;9.186;2023-10-09T05:16:11;17.37;;;5.73;;
809;SDS011;387;48.772;9.186;2023-10-09T05:18:43;20.23;;;5.57;;
809;SDS011;387;48.772;9.186;2023-10-09T05:21:21;26.20;;;6.10;;
809;SDS011;387;48.772;9.186;2023-10-09T05:23:59;16.53;;;6.20;;
809;SDS011;387;48.772;9.186;2023-10-09T05:26:38;33.83;;;6.37;;
809;SDS011;387;48.772;9.186;2023-10-09T05:29:17;20.77;;;5.90;;
809;SDS011;387;48.772;9.186;2023-10-09T05:31:53;25.07;;;5.50;;
809;SDS011;387;48.772;9.186;2023-10-09T05:34:28;14.83;;;5.03;;
809;SDS011;387;48.772;9.186;2023-10-09T05:37:33;30.23;;;6.17;;
809;SDS011;387;48.772;9.186;2023-10-09T05:40:05;26.77;;;5.43;;
809;SDS011;387;48.772;9.186;2023-10-09T05:42:51;17.50;;;5.40;;
809;SDS011;387;48.772;9.186;2023-10-09T05:45:24;14.20;;;5.80;;
809;SDS011;387;48.772;9.186;2023-10-09T05:48:29;19.20;;;5.40;;
809;SDS011;387;48.772;9.186;2023-10-09T05:51:03;21.17;;;6.30;;
809;SDS011;387;48.772;9.186;2023-10-09T05:53:37;20.90;;;5.20;;
809;SDS011;387;48.772;9.186;2023-10-09T05:56:09;16.50;;;5.00;;
809;SDS011;387;48.772;9.186;2023-10-09T05:59:13;24.43;;;6.23;;
809;SDS011;387;48.772;9.186;2023-10-09T06:01:58;24.33;;;6.13;;
809;SDS011;387;48.772;9.186;2023-10-09T06:04:24;17.17;;;5.40;;
809;SDS011;387;48.772;9.186;2023-10-09T06:07:14;9.20;;;4.83;;
809;SDS011;387;48.772;9.186;2023-10-09T06:09:47;24.63;;;5.67;;
809;SDS011;387;48.772;9.186;2023-10-09T06:12:17;19.63;;;6.40;;
809;SDS011;387;48.772;9.186;2023-10-09T06:15:14;18.87;;;5.97;;
809;SDS011;387;48.772;9.186;2023-10-09T06:17:59;19.90;;;5.87;;
809;SDS011;387;48.772;9.186;2023-10-09T06:20:47;19.30;;;7.10;;
809;SDS011;387;48.772;9.186;2023-10-09T06:23:31;17.93;;;5.93;;
809;SDS011;387;48.772;9.186;2023-10-09T06:26:33;17.40;;;5.47;;
809;SDS011;387;48.772;9.186;2023-10-09T06:28:59;22.90;;;5.60;;
809;SDS011;387;48.772;9.186;2023-10-09T06:31:39;20.47;;;5.70;;
809;SDS011;387;48.772;9.186;2023-10-09T06:34:26;18.20;;;5.20;;
809;SDS011;387;48.772;9.186;2023-10-09T06:37:00;21.73;;;6.30;;
809;SDS011;387;48.772;9.186;2023-10-09T06:39:34;17.43;;;5.33;;
809;SDS011;387;48.772;9.186;2023-10-09T06:42:18;16.83;;;5.33;;
809;SDS011;387;48.772;9.186;2023-10-09T06:45:01;14.07;;;5.63;;
809;SDS011;387;48.772;9.186;2023-10-09T06:47:48;26.67;;;6.20;;
809;SDS011;387;48.772;9.186;2023-10-09T06:50:20;15.43;;;5.50;;
809;SDS011;387;48.772;9.186;2023-10-09T06:52:47;21.00;;;7.27;;
809;SDS011;387;48.772;9.186;2023-10-09T06:55:25;21.33;;;6.60;;
809;SDS011;387;48.772;9.186;2023-10-09T06:58:02;18.50;;;6.70;;
809;SDS011;387;48.772;9.186;2023-10-09T07:00:38;24.33;;;8.13;;
809;SDS011;387;48.772;9.186;2023-10-09T07:03:22;17.27;;;6.17;;
809;SDS011;387;48.772;9.186;2023-10-09T07:06:07;24.03;;;6.87;;
809;SDS011;387;48.772;9.186;2023-10-09T07:08:57;16.07;;;5.63;;
809;SDS011;387;48.772;9.186;2023-10-09T07:11:32;12.47;;;4.87;;
809;SDS011;387;48.772;9.186;2023-10-09T07:14:07;18.80;;;5.07;;
809;SDS011;387;48.772;9.186;2023-10-09T07:17:16;19.97;;;6.40;;
809;SDS011;387;48.772;9.186;2023-10-09T07:19:41;28.63;;;7.40;;
809;SDS011;387;48.772;9.186;2023-10-09T07:22:08;22.50;;;6.20;;
809;SDS011;387;48.772;9.186;2023-10-09T07:25:01;16.70;;;5.10;;
809;SDS011;387;48.772;9.186;2023-10-09T07:27:52;17.20;;;5.90;;
809;SDS011;387;48.772;9.186;2023-10-09T07:30:20;26.07;;;5.37;;
809;SDS011;387;48.772;9.186;2023-10-09T07:32:56;16.43;;;5.47;;
809;SDS011;387;48.772;9.186;2023-10-09T07:35:35;22.80;;;5.90;;
809;SDS011;387;48.772;9.186;2023-10-09T07:38:19;23.90;;;5.83;;
809;SDS011;387;48.772;9.186;2023-10-09T07:40:47;20.40;;;5.80;;
809;SDS011;387;48.772;9.186;2023-10-09T07:43:35;17.00;;;5.83;;
809;SDS011;387;48.772;9.186;2023-10-09T07:46:08;14.87;;;5.70;;
809;SDS011;387;48.772;9.186;2023-10-09T07:48:53;22.17;;;5.47;;
809;SDS011;387;48.772;9.186;2023-10-09T07:51:20;17.03;;;6.17;;
809;SDS011;387;48.772;9.186;2023-10-09T07:53:56;20.57;;;5.40;;
809;SDS011;387;48.772;9.186;2023-10-09T07:56:32;19.63;;;5.90;;
809;SDS011;387;48.772;9.186;2023-10-09T07:59:03;23.27;;;5.40;;
809;SDS011;387;48.772;9.186;2023-10-09T08:02:09;15.93;;;5.10;;
809;SDS011;387;48.772;9.186;2023-10-09T08:04:28;19.27;;;5.70;;
809;SDS011;387;48.772;9.186;2023-10-09T08:07:09;18.20;;;5.87;;
809;SDS011;387;48.772;9.186;2023-10-09T08:09:53;21.03;;;5.13;;
809;SDS011;387;48.772;9.186;2023-10-09T08:12:42;14.13;;;5.10;;
809;SDS011;387;48.772;9.186;2023-10-09T08:15:14;16.83;;;5.70;;
809;SDS011;387;48.772;9.186;2023-10-09T08:17:56;20.50;;;5.93;;
809;SDS011;387;48.772;9.186;2023-10-09T08:20:43;14.60;;;4.83;;
809;SDS011;387;48.772;9.186;2023-10-09T08:23:21;16.00;;;5.00;;
809;SDS011;387;48.772;9.186;2023-10-09T08:26:13;26.73;;;5.83;;
809;SDS011;387;48.772;9.186;2023-10-09T08:28:40;17.10;;;5.50;;
809;SDS011;387;48.772;9.186;2023-10-09T08:31:11;15.60;;;5.20;;
809;SDS011;387;48.772;9.186;2023-10-09T08:33:45;20.63;;;5.50;;
809;SDS011;387;48.772;9.186;2023-10-09T08:36:21;18.13;;;5.77;;
809;SDS011;387;48.772;9.186;2023-10-09T08:38:48;23.50;;;6.10;;
809;SDS011;387;48.772;9.186;2023-10-09T08:41:13;35.70;;;6.53;;
809;SDS011;387;48.772;9.186;2023-10-09T08:43:51;24.97;;;6.00;;
809;SDS011;387;48.772;9.186;2023-10-09T08:46:22;18.97;;;5.10;;
809;SDS011;387;48.772;9.186;2023-10-09T08:48:51;20.17;;;6.20;;
809;SDS011;387;48.772;9.186;2023-10-09T08:51:19;14.33;;;5.03;;
809;SDS011;387;48.772;9.186;2023-10-09T08:53:46;24.40;;;6.67;;
809;SDS011;387;48.772;9.186;2023-10-09T08:56:12;15.93;;;6.63;;
809;SDS011;387;48.772;9.186;2023-10-09T08:58:47;21.70;;;6.63;;
809;SDS011;387;48.772;9.186;2023-10-09T09:01:16;26.97;;;8.57;;
809;SDS011;387;48.772;9.186;2023-10-09T09:03:46;15.93;;;5.50;;
809;SDS011;387;48.772;9.186;2023-10-09T09:06:13;21.77;;;6.30;;
809;SDS011;387;48.772;9.186;2023-10-09T09:08:39;20.03;;;6.70;;
809;SDS011;387;48.772;9.186;2023-10-09T09:11:09;34.27;;;8.20;;
809;SDS011;387;48.772;9.186;2023-10-09T09:13:44;26.57;;;8.10;;
809;SDS011;387;48.772;9.186;2023-10-09T09:16:21;26.23;;;8.00;;
809;SDS011;387;48.772;9.186;2023-10-09T09:18:52;22.10;;;7.47;;
809;SDS011;387;48.772;9.186;2023-10-09T09:21:26;18.73;;;7.50;;
809;SDS011;387;48.772;9.186;2023-10-09T09:24:01;17.50;;;7.17;;
809;SDS011;387;48.772;9.186;2023-10-09T09:26:37;19.60;;;6.70;;
809;SDS011;387;48.772;9.186;2023-10-09T09:29:10;18.33;;;6.33;;
809;SDS011;387;48.772;9.186;2023-10-09T09:31:36;34.57;;;9.37;;
809;SDS011;387;48.772;9.186;2023-10-09T09:34:07;36.07;;;8.30;;
809;SDS011;387;48.772;9.186;2023-10-09T09:36:57;24.20;;;8.00;;
809;SDS011;387;48.772;9.186;2023-10-09T09:39:26;28.50;;;9.80;;
809;SDS011;387;48.772;9.186;2023-10-09T09:41:56;25.20;;;8.53;;
809;SDS011;387;48.772;9.186;2023-10-09T09:44:35;20.50;;;7.57;;
809;SDS011;387;48.772;9.186;2023-10-09T09:47:08;32.07;;;8.37;;
809;SDS011;387;48.772;9.186;2023-10-09T09:49:40;30.23;;;9.27;;
809;SDS011;387;48.772;9.186;2023-10-09T09:52:06;45.10;;;9.40;;
809;SDS011;387;48.772;9.186;2023-10-09T09:54:37;27.33;;;8.67;;
809;SDS011;387;48.772;9.186;2023-10-09T09:57:03;24.07;;;7.77;;
809;SDS011;387;48.772;9.186;2023-10-09T09:59:36;27.03;;;8.70;;
809;SDS011;387;48.772;9.186;2023-10-09T10:02:05;24.63;;;7.23;;
809;SDS011;387;48.772;9.186;2023-10-09T10:04:36;31.00;;;8.33;;
809;SDS011;387;48.772;9.186;2023-10-09T10:07:04;25.80;;;8.40;;
809;SDS011;387;48.772;9.186;2023-10-09T10:09:37;23.60;;;8.07;;
809;SDS011;387;48.772;9.186;2023-10-09T10:12:10;29.00;;;7.93;;
809;SDS011;387;48.772;9.186;2023-10-09T10:14:55;22.60;;;7.20;;
809;SDS011;387;48.772;9.186;2023-10-09T10:17:45;23.60;;;6.40;;
809;SDS011;387;48.772;9.186;2023-10-09T10:20:24;26.23;;;6.10;;
809;SDS011;387;48.772;9.186;2023-10-09T10:22:51;25.13;;;5.63;;
809;SDS011;387;48.772;9.186;2023-10-09T10:25:42;23.00;;;5.80;;
809;SDS011;387;48.772;9.186;2023-10-09T10:28:20;23.57;;;5.10;;
809;SDS011;387;48.772;9.186;2023-10-09T10:31:05;19.83;;;5.10;;
809;SDS011;387;48.772;9.186;2023-10-09T10:36:21;30.37;;;6.50;;
809;SDS011;387;48.772;9.186;2023-10-09T10:41:36;26.13;;;6.73;;
809;SDS011;387;48.772;9.186;2023-10-09T10:44:28;35.93;;;6.50;;
809;SDS011;387;48.772;9.186;2023-10-09T10:47:03;28.60;;;5.63;;
809;SDS011;387;48.772;9.186;2023-10-09T10:49:51;25.27;;;6.37;;
809;SDS011;387;48.772;9.186;2023-10-09T10:52:23;24.63;;;5.47;;
809;SDS011;387;48.772;9.186;2023-10-09T10:55:15;25.50;;;5.60;;
809;SDS011;387;48.772;9.186;2023-10-09T10:58:16;22.80;;;7.03;;
809;SDS011;387;48.772;9.186;2023-10-09T11:00:55;22.00;;;6.30;;
809;SDS011;387;48.772;9.186;2023-10-09T11:03:21;20.33;;;6.10;;
809;SDS011;387;48.772;9.186;2023-10-09T11:06:06;19.57;;;4.97;;
809;SDS011;387;48.772;9.186;2023-10-09T11:08:43;19.57;;;5.30;;
809;SDS011;387;48.772;9.186;2023-10-09T11:11:24;27.80;;;6.30;;
809;SDS011;387;48.772;9.186;2023-10-09T11:14:12;17.60;;;4.80;;
809;SDS011;387;48.772;9.186;2023-10-09T11:16:58;20.60;;;4.80;;
809;SDS011;387;48.772;9.186;2023-10-09T11:19:28;15.93;;;4.80;;
809;SDS011;387;48.772;9.186;2023-10-09T11:21:56;23.63;;;5.30;;
809;SDS011;387;48.772;9.186;2023-10-09T11:24:32;28.70;;;5.77;;
809;SDS011;387;48.772;9.186;2023-10-09T11:27:02;16.57;;;4.73;;
809;SDS011;387;48.772;9.186;2023-10-09T11:29:32;15.23;;;4.43;;
809;SDS011;387;48.772;9.186;2023-10-09T11:32:08;20.83;;;5.60;;
809;SDS011;387;48.772;9.186;2023-10-09T11:34:47;17.50;;;4.50;;
809;SDS011;387;48.772;9.186;2023-10-09T11:37:18;16.43;;;4.53;;
809;SDS011;387;48.772;9.186;2023-10-09T11:39:57;15.33;;;5.20;;
809;SDS011;387;48.772;9.186;2023-10-09T11:42:23;14.60;;;4.67;;
809;SDS011;387;48.772;9.186;2023-10-09T11:45:02;22.50;;;5.53;;
809;SDS011;387;48.772;9.186;2023-10-09T11:47:36;14.37;;;4.43;;
809;SDS011;387;48.772;9.186;2023-10-09T11:50:10;19.10;;;5.00;;
809;SDS011;387;48.772;9.186;2023-10-09T11:52:58;13.80;;;4.93;;
809;SDS011;387;48.772;9.186;2023-10-09T11:55:43;18.13;;;6.17;;
809;SDS011;387;48.772;9.186;2023-10-09T11:58:13;15.03;;;5.80;;
809;SDS011;387;48.772;9.186;2023-10-09T12:00:45;14.17;;;4.83;;
809;SDS011;387;48.772;9.186;2023-10-09T12:03:12;17.70;;;6.03;;
809;SDS011;387;48.772;9.186;2023-10-09T12:05:39;16.47;;;5.80;;
809;SDS011;387;48.772;9.186;2023-10-09T12:08:09;16.40;;;4.77;;
809;SDS011;387;48.772;9.186;2023-10-09T12:10:36;19.80;;;5.27;;
809;SDS011;387;48.772;9.186;2023-10-09T12:13:03;14.33;;;4.77;;
809;SDS011;387;48.772;9.186;2023-10-09T12:15:31;12.23;;;4.87;;
809;SDS011;387;48.772;9.186;2023-10-09T12:18:08;15.60;;;5.20;;
809;SDS011;387;48.772;9.186;2023-10-09T12:20:39;23.47;;;5.83;;
809;SDS011;387;48.772;9.186;2023-10-09T12:23:06;21.33;;;6.13;;
809;SDS011;387;48.772;9.186;2023-10-09T12:25:32;13.97;;;5.33;;
809;SDS011;387;48.772;9.186;2023-10-09T12:28:00;17.17;;;4.70;;
809;SDS011;387;48.772;9.186;2023-10-09T12:30:28;20.00;;;4.73;;
809;SDS011;387;48.772;9.186;2023-10-09T12:32:55;17.23;;;4.33;;
809;SDS011;387;48.772;9.186;2023-10-09T12:35:22;11.03;;;5.33;;
809;SDS011;387;48.772;9.186;2023-10-09T12:37:54;9.87;;;4.90;;
809;SDS011;387;48.772;9.186;2023-10-09T12:40:30;11.53;;;4.73;;
809;SDS011;387;48.772;9.186;2023-10-09T12:42:58;17.53;;;5.97;;
809;SDS011;387;48.772;9.186;2023-10-09T12:45:24;11.03;;;5.20;;
809;SDS011;387;48.772;9.186;2023-10-09T12:47:54;17.67;;;6.47;;
809;SDS011;387;48.772;9.186;2023-10-09T12:50:31;11.17;;;5.57;;
809;SDS011;387;48.772;9.186;2023-10-09T12:53:00;12.53;;;6.07;;
809;SDS011;387;48.772;9.186;2023-10-09T12:55:35;12.17;;;5.57;;
809;SDS011;387;48.772;9.186;2023-10-09T12:58:08;19.03;;;6.33;;
809;SDS011;387;48.772;9.186;2023-10-09T13:00:37;15.47;;;6.00;;
809;SDS011;387;48.772;9.186;2023-10-09T13:03:07;16.53;;;5.87;;
809;SDS011;387;48.772;9.186;2023-10-09T13:05:42;16.03;;;6.90;;
809;SDS011;387;48.772;9.186;2023-10-09T13:08:21;19.53;;;6.40;;
809;SDS011;387;48.772;9.186;2023-10-09T13:10:56;17.37;;;7.23;;
809;SDS011;387;48.772;9.186;2023-10-09T13:13:29;16.80;;;6.77;;
809;SDS011;387;48.772;9.186;2023-10-09T13:16:17;18.10;;;6.07;;
809;SDS011;387;48.772;9.186;2023-10-09T13:18:50;19.07;;;7.50;;
809;SDS011;387;48.772;9.186;2023-10-09T13:21:16;12.83;;;5.23;;
809;SDS011;387;48.772;9.186;2023-10-09T13:23:43;20.50;;;6.40;;
809;SDS011;387;48.772;9.186;2023-10-09T13:26:12;18.50;;;6.97;;
809;SDS011;387;48.772;9.186;2023-10-09T13:28:47;13.90;;;5.93;;
809;SDS011;387;48.772;9.186;2023-10-09T13:31:14;15.00;;;5.87;;
809;SDS011;387;48.772;9.186;2023-10-09T13:33:41;18.17;;;6.87;;
809;SDS011;387;48.772;9.186;2023-10-09T13:36:08;14.73;;;6.80;;
809;SDS011;387;48.772;9.186;2023-10-09T13:38:53;15.67;;;6.73;;
809;SDS011;387;48.772;9.186;2023-10-09T13:41:20;17.37;;;6.87;;
809;SDS011;387;48.772;9.186;2023-10-09T13:43:46;19.40;;;7.90;;
809;SDS011;387;48.772;9.186;2023-10-09T13:46:12;16.10;;;6.40;;
809;SDS011;387;48.772;9.186;2023-10-09T13:48:42;22.43;;;6.97;;
809;SDS011;387;48.772;9.186;2023-10-09T13:51:09;14.67;;;6.90;;
809;SDS011;387;48.772;9.186;2023-10-09T13:53:42;16.50;;;7.10;;
809;SDS011;387;48.772;9.186;2023-10-09T13:56:15;15.97;;;6.93;;
809;SDS011;387;48.772;9.186;2023-10-09T13:58:47;18.70;;;7.30;;
809;SDS011;387;48.772;9.186;2023-10-09T14:01:15;18.93;;;7.73;;
809;SDS011;387;48.772;9.186;2023-10-09T14:03:55;13.17;;;6.70;;
809;SDS011;387;48.772;9.186;2023-10-09T14:06:26;16.30;;;6.63;;
809;SDS011;387;48.772;9.186;2023-10-09T14:08:59;16.80;;;6.80;;
809;SDS011;387;48.772;9.186;2023-10-09T14:11:33;15.23;;;6.20;;
809;SDS011;387;48.772;9.186;2023-10-09T14:14:02;12.03;;;6.40;;
809;SDS011;387;48.772;9.186;2023-10-09T14:16:41;15.10;;;6.70;;
809;SDS011;387;48.772;9.186;2023-10-09T14:19:08;14.30;;;6.63;;
809;SDS011;387;48.772;9.186;2023-10-09T14:21:38;14.97;;;6.57;;
809;SDS011;387;48.772;9.186;2023-10-09T14:24:05;13.50;;;6.70;;
809;SDS011;387;48.772;9.186;2023-10-09T14:26:40;15.40;;;6.67;;
809;SDS011;387;48.772;9.186;2023-10-09T14:29:07;20.20;;;7.10;;
809;SDS011;387;48.772;9.186;2023-10-09T14:31:32;13.17;;;5.87;;
809;SDS011;387;48.772;9.186;2023-10-09T14:34:04;15.20;;;6.90;;
809;SDS011;387;48.772;9.186;2023-10-09T14:36:30;20.30;;;7.07;;
809;SDS011;387;48.772;9.186;2023-10-09T14:38:59;13.50;;;6.10;;
809;SDS011;387;48.772;9.186;2023-10-09T14:41:26;13.73;;;5.97;;
809;SDS011;387;48.772;9.186;2023-10-09T14:43:53;11.93;;;6.40;;
809;SDS011;387;48.772;9.186;2023-10-09T14:46:19;17.00;;;5.67;;
809;SDS011;387;48.772;9.186;2023-10-09T14:48:51;17.73;;;5.17;;
809;SDS011;387;48.772;9.186;2023-10-09T14:51:21;23.17;;;7.10;;
809;SDS011;387;48.772;9.186;2023-10-09T14:53:57;17.10;;;6.20;;
809;SDS011;387;48.772;9.186;2023-10-09T14:56:24;16.10;;;6.47;;
809;SDS011;387;48.772;9.186;2023-10-09T14:58:57;14.07;;;5.23;;
809;SDS011;387;48.772;9.186;2023-10-09T15:01:24;12.07;;;5.73;;
809;SDS011;387;48.772;9.186;2023-10-09T15:03:53;13.80;;;5.67;;
809;SDS011;387;48.772;9.186;2023-10-09T15:06:24;12.13;;;6.07;;
809;SDS011;387;48.772;9.186;2023-10-09T15:08:53;13.07;;;5.80;;
809;SDS011;387;48.772;9.186;2023-10-09T15:11:24;11.53;;;5.43;;
809;SDS011;387;48.772;9.186;2023-10-09T15:13:54;16.60;;;7.00;;
809;SDS011;387;48.772;9.186;2023-10-09T15:16:22;14.73;;;6.60;;
809;SDS011;387;48.772;9.186;2023-10-09T15:18:51;12.23;;;6.10;;
809;SDS011;387;48.772;9.186;2023-10-09T15:21:21;14.07;;;6.87;;
809;SDS011;387;48.772;9.186;2023-10-09T15:23:48;17.50;;;6.70;;
809;SDS011;387;48.772;9.186;2023-10-09T15:26:24;12.50;;;6.60;;
809;SDS011;387;48.772;9.186;2023-10-09T15:28:50;19.30;;;6.53;;
809;SDS011;387;48.772;9.186;2023-10-09T15:31:16;12.63;;;6.80;;
809;SDS011;387;48.772;9.186;2023-10-09T15:33:43;16.77;;;8.37;;
809;SDS011;387;48.772;9.186;2023-10-09T15:36:12;16.03;;;7.17;;
809;SDS011;387;48.772;9.186;2023-10-09T15:38:39;12.73;;;6.20;;
809;SDS011;387;48.772;9.186;2023-10-09T15:41:06;17.57;;;6.53;;
809;SDS011;387;48.772;9.186;2023-10-09T15:43:32;13.10;;;5.90;;
809;SDS011;387;48.772;9.186;2023-10-09T15:45:59;16.97;;;6.17;;
809;SDS011;387;48.772;9.186;2023-10-09T15:48:25;17.63;;;6.27;;
809;SDS011;387;48.772;9.186;2023-10-09T15:50:50;15.17;;;6.40;;
809;SDS011;387;48.772;9.186;2023-10-09T15:53:16;16.87;;;7.00;;
809;SDS011;387;48.772;9.186;2023-10-09T15:55:45;15.53;;;7.60;;
809;SDS011;387;48.772;9.186;2023-10-09T15:58:11;19.87;;;7.13;;
809;SDS011;387;48.772;9.186;2023-10-09T16:00:37;13.77;;;6.33;;
809;SDS011;387;48.772;9.186;2023-10-09T16:03:04;15.57;;;6.00;;
809;SDS011;387;48.772;9.186;2023-10-09T16:05:34;15.53;;;6.67;;
809;SDS011;387;48.772;9.186;2023-10-09T16:08:00;15.17;;;6.50;;
809;SDS011;387;48.772;9.186;2023-10-09T16:10:28;12.60;;;5.80;;
809;SDS011;387;48.772;9.186;2023-10-09T16:12:56;15.33;;;6.87;;
809;SDS011;387;48.772;9.186;2023-10-09T16:15:22;18.93;;;7.40;;
809;SDS011;387;48.772;9.186;2023-10-09T16:17:49;15.87;;;6.60;;
809;SDS011;387;48.772;9.186;2023-10-09T16:20:24;16.47;;;6.20;;
809;SDS011;387;48.772;9.186;2023-10-09T16:22:51;14.30;;;6.10;;
809;SDS011;387;48.772;9.186;2023-10-09T16:25:17;14.57;;;6.00;;